Witts, Indiana
Current Conditions -  °F | °C
As of 12:35 AM on Thursday 23 Oct 2014 (Local Time) from KI67 Reporting Station
Overcast Overcast  
Wind Chill: 44°   Ceiling: 2400
Heat Index: 46°   Visibility: 10mi
Dew Point: 39°   Wind: 6mph
Humidity: 76%   Direction: 60°ENE
Pressure: 30.27"   Gusts: NA
Location:  39.6086°N, 84.9137°W
Report Text: KI67 230435Z AUTO 06005KT 10SM OVC024 08/04 A3027 RMK AO1
Loading
Personal Weather Stations






























Interactive Weather Map
Tropical Storm Tracking
New forecast layout! Learn more

10-Day Weather Forecast

Advertisements
Track Severe Weather on mobile